KEWK/EWK METAR and TAF weather

Enter ICAO airport designator
Station Type Date Time Source
KEWK METAR 2019/12/09 05:56 UTC NOAA

KEWK 090556Z AUTO 00000KT 3SM BR CLR 03/03 A2960 RMK AO2 SLP026 T00280028 10067 20022 58012


Station Type Date Time Source
KEWK Decoded METAR 2019/12/09 05:56 UTC NOAA

Newton, Newton City/County Airport, KS, United States (KEWK) 38-03N 097-17W
Dec 09, 2019 - 12:56 AM EST / 2019.12.09 0556 UTC
Wind: Calm:0
Visibility: 3 mile(s):0
Sky conditions: clear
Weather: mist
Temperature: 37.0 F (2.8 C)
Dew Point: 37.0 F (2.8 C)
Relative Humidity: 100%
Pressure (altimeter): 29.6 in. Hg (1002 hPa)
Pressure tendency: 0.04 inches (1.2 hPa) lower than three hours ago
ob: KEWK 090556Z AUTO 00000KT 3SM BR CLR 03/03 A2960 RMK AO2 SLP026 T00280028 10067 20022 58012
cycle: 6

Station Type Date Time Source
KEWK TAF UTC NOAA

Error!

Example: see airport list